sensor_id;sensor_type;location;lat;lon;timestamp;pressure;altitude;pressure_sealevel;temperature;humidity
13387;BME280;6763;48.524;9.044;2023-03-15T00:01:01;97391.63;;;7.24;54.51
13387;BME280;6763;48.524;9.044;2023-03-15T00:03:28;97395.09;;;7.20;54.76
13387;BME280;6763;48.524;9.044;2023-03-15T00:05:53;97397.69;;;7.19;54.80
13387;BME280;6763;48.524;9.044;2023-03-15T00:08:19;97405.41;;;7.20;54.67
13387;BME280;6763;48.524;9.044;2023-03-15T00:10:46;97409.69;;;7.20;54.93
13387;BME280;6763;48.524;9.044;2023-03-15T00:13:14;97411.41;;;7.19;54.66
13387;BME280;6763;48.524;9.044;2023-03-15T00:15:48;97417.50;;;7.11;54.67
13387;BME280;6763;48.524;9.044;2023-03-15T00:18:15;97420.19;;;7.02;54.33
13387;BME280;6763;48.524;9.044;2023-03-15T00:20:41;97422.91;;;6.90;55.02
13387;BME280;6763;48.524;9.044;2023-03-15T00:23:07;97439.25;;;6.84;54.52
13387;BME280;6763;48.524;9.044;2023-03-15T00:25:32;97446.06;;;6.85;54.74
13387;BME280;6763;48.524;9.044;2023-03-15T00:27:58;97446.16;;;6.79;55.17
13387;BME280;6763;48.524;9.044;2023-03-15T00:30:23;97458.09;;;6.84;55.16
13387;BME280;6763;48.524;9.044;2023-03-15T00:32:51;97472.56;;;6.95;55.02
13387;BME280;6763;48.524;9.044;2023-03-15T00:35:18;97469.09;;;7.00;55.19
13387;BME280;6763;48.524;9.044;2023-03-15T00:37:43;97473.34;;;7.04;54.83
13387;BME280;6763;48.524;9.044;2023-03-15T00:40:09;97487.84;;;7.08;54.86
13387;BME280;6763;48.524;9.044;2023-03-15T00:42:36;97484.47;;;7.06;54.94
13387;BME280;6763;48.524;9.044;2023-03-15T00:45:02;97496.41;;;7.12;54.86
13387;BME280;6763;48.524;9.044;2023-03-15T00:47:27;97494.69;;;7.12;54.53
13387;BME280;6763;48.524;9.044;2023-03-15T00:49:52;97501.50;;;7.16;54.73
13387;BME280;6763;48.524;9.044;2023-03-15T00:52:18;97499.78;;;7.18;54.58
13387;BME280;6763;48.524;9.044;2023-03-15T00:54:43;97486.91;;;7.20;54.59
13387;BME280;6763;48.524;9.044;2023-03-15T00:57:08;97492.88;;;7.23;54.47
13387;BME280;6763;48.524;9.044;2023-03-15T00:59:34;97489.47;;;7.20;54.14
13387;BME280;6763;48.524;9.044;2023-03-15T01:02:01;97506.72;;;7.13;54.09
13387;BME280;6763;48.524;9.044;2023-03-15T01:04:27;97509.38;;;7.03;54.43
13387;BME280;6763;48.524;9.044;2023-03-15T01:06:52;97515.44;;;6.93;54.04
13387;BME280;6763;48.524;9.044;2023-03-15T01:09:17;97516.41;;;6.81;54.45
13387;BME280;6763;48.524;9.044;2023-03-15T01:11:43;97524.16;;;6.78;54.71
13387;BME280;6763;48.524;9.044;2023-03-15T01:14:08;97525.81;;;6.85;54.99
13387;BME280;6763;48.524;9.044;2023-03-15T01:16:34;97533.47;;;6.91;54.83
13387;BME280;6763;48.524;9.044;2023-03-15T01:19:00;97539.47;;;6.95;54.93
13387;BME280;6763;48.524;9.044;2023-03-15T01:21:25;97543.66;;;7.03;54.68
13387;BME280;6763;48.524;9.044;2023-03-15T01:23:52;97540.22;;;7.07;54.65
13387;BME280;6763;48.524;9.044;2023-03-15T01:26:18;97541.91;;;7.10;54.54
13387;BME280;6763;48.524;9.044;2023-03-15T01:28:44;97563.31;;;7.13;54.40
13387;BME280;6763;48.524;9.044;2023-03-15T01:31:28;97549.59;;;7.11;54.45
13387;BME280;6763;48.524;9.044;2023-03-15T01:33:55;97559.06;;;7.09;54.57
13387;BME280;6763;48.524;9.044;2023-03-15T01:36:21;97562.56;;;7.02;54.06
13387;BME280;6763;48.524;9.044;2023-03-15T01:38:47;97567.78;;;6.92;54.11
13387;BME280;6763;48.524;9.044;2023-03-15T01:41:16;97574.72;;;6.80;53.98
13387;BME280;6763;48.524;9.044;2023-03-15T01:43:42;97574.78;;;6.70;54.17
13387;BME280;6763;48.524;9.044;2023-03-15T01:49:10;97584.38;;;6.48;54.27
13387;BME280;6763;48.524;9.044;2023-03-15T01:52:00;97577.59;;;6.35;54.27
13387;BME280;6763;48.524;9.044;2023-03-15T01:57:07;97581.09;;;6.19;55.11
13387;BME280;6763;48.524;9.044;2023-03-15T01:59:37;97578.53;;;6.16;54.99
13387;BME280;6763;48.524;9.044;2023-03-15T02:02:04;97592.25;;;6.10;54.97
13387;BME280;6763;48.524;9.044;2023-03-15T02:04:35;97588.88;;;6.07;54.99
13387;BME280;6763;48.524;9.044;2023-03-15T02:07:04;97590.56;;;6.02;54.91
13387;BME280;6763;48.524;9.044;2023-03-15T02:10:03;97593.19;;;5.96;55.11
13387;BME280;6763;48.524;9.044;2023-03-15T02:12:31;97592.34;;;5.91;55.00
13387;BME280;6763;48.524;9.044;2023-03-15T02:14:59;97592.34;;;5.89;55.26
13387;BME280;6763;48.524;9.044;2023-03-15T02:17:35;97597.50;;;5.91;55.24
13387;BME280;6763;48.524;9.044;2023-03-15T02:22:59;97598.38;;;5.85;55.38
13387;BME280;6763;48.524;9.044;2023-03-15T02:27:51;97607.75;;;5.77;55.40
13387;BME280;6763;48.524;9.044;2023-03-15T02:30:17;97615.47;;;5.74;55.19
13387;BME280;6763;48.524;9.044;2023-03-15T02:32:43;97615.47;;;5.71;55.31
13387;BME280;6763;48.524;9.044;2023-03-15T02:35:09;97617.22;;;5.61;55.28
13387;BME280;6763;48.524;9.044;2023-03-15T02:37:34;97613.81;;;5.55;54.82
13387;BME280;6763;48.524;9.044;2023-03-15T02:40:00;97630.06;;;5.48;55.20
13387;BME280;6763;48.524;9.044;2023-03-15T02:42:25;97630.09;;;5.42;55.12
13387;BME280;6763;48.524;9.044;2023-03-15T02:44:52;97632.66;;;5.34;54.84
13387;BME280;6763;48.524;9.044;2023-03-15T02:47:26;97645.50;;;5.31;54.70
13387;BME280;6763;48.524;9.044;2023-03-15T02:49:52;97646.31;;;5.24;54.18
13387;BME280;6763;48.524;9.044;2023-03-15T02:52:18;97650.63;;;5.16;54.47
13387;BME280;6763;48.524;9.044;2023-03-15T02:54:44;97652.31;;;5.11;54.67
13387;BME280;6763;48.524;9.044;2023-03-15T02:57:11;97666.00;;;5.10;54.95
13387;BME280;6763;48.524;9.044;2023-03-15T02:59:37;97661.72;;;5.12;55.22
13387;BME280;6763;48.524;9.044;2023-03-15T03:02:04;97666.88;;;5.15;55.30
13387;BME280;6763;48.524;9.044;2023-03-15T03:04:29;97670.28;;;5.16;55.14
13387;BME280;6763;48.524;9.044;2023-03-15T03:06:55;97666.88;;;5.18;55.15
13387;BME280;6763;48.524;9.044;2023-03-15T03:09:21;97680.56;;;5.19;54.90
13387;BME280;6763;48.524;9.044;2023-03-15T03:11:47;97674.53;;;5.14;54.60
13387;BME280;6763;48.524;9.044;2023-03-15T03:14:12;97684.81;;;5.11;54.65
13387;BME280;6763;48.524;9.044;2023-03-15T03:16:38;97678.81;;;5.03;54.79
13387;BME280;6763;48.524;9.044;2023-03-15T03:19:04;97691.63;;;5.04;54.64
13387;BME280;6763;48.524;9.044;2023-03-15T03:21:29;97697.63;;;5.01;55.19
13387;BME280;6763;48.524;9.044;2023-03-15T03:23:55;97693.34;;;4.99;55.15
13387;BME280;6763;48.524;9.044;2023-03-15T03:26:20;97709.59;;;5.04;55.30
13387;BME280;6763;48.524;9.044;2023-03-15T03:28:46;97708.75;;;5.02;55.46
13387;BME280;6763;48.524;9.044;2023-03-15T03:31:26;97711.31;;;5.00;55.53
13387;BME280;6763;48.524;9.044;2023-03-15T03:33:52;97712.97;;;4.95;55.82
13387;BME280;6763;48.524;9.044;2023-03-15T03:36:17;97714.69;;;4.98;56.07
13387;BME280;6763;48.524;9.044;2023-03-15T03:38:44;97714.72;;;4.96;55.90
13387;BME280;6763;48.524;9.044;2023-03-15T03:41:12;97733.53;;;4.97;55.67
13387;BME280;6763;48.524;9.044;2023-03-15T03:43:38;97729.22;;;4.93;55.65
13387;BME280;6763;48.524;9.044;2023-03-15T03:46:04;97730.09;;;4.87;55.50
13387;BME280;6763;48.524;9.044;2023-03-15T03:48:30;97740.31;;;4.86;55.34
13387;BME280;6763;48.524;9.044;2023-03-15T03:50:57;97735.19;;;4.81;55.35
13387;BME280;6763;48.524;9.044;2023-03-15T03:53:22;97743.72;;;4.80;55.09
13387;BME280;6763;48.524;9.044;2023-03-15T03:55:48;97741.16;;;4.74;54.92
13387;BME280;6763;48.524;9.044;2023-03-15T03:58:13;97743.69;;;4.68;55.06
13387;BME280;6763;48.524;9.044;2023-03-15T04:00:39;97753.09;;;4.69;55.32
13387;BME280;6763;48.524;9.044;2023-03-15T04:03:05;97747.94;;;4.65;55.22
13387;BME280;6763;48.524;9.044;2023-03-15T04:05:31;97747.91;;;4.62;55.67
13387;BME280;6763;48.524;9.044;2023-03-15T04:07:56;97761.63;;;4.68;56.31
13387;BME280;6763;48.524;9.044;2023-03-15T04:10:22;97765.91;;;4.71;56.42
13387;BME280;6763;48.524;9.044;2023-03-15T04:12:55;97765.09;;;4.79;57.03
13387;BME280;6763;48.524;9.044;2023-03-15T04:15:22;97766.78;;;4.80;56.73
13387;BME280;6763;48.524;9.044;2023-03-15T04:17:51;97767.63;;;4.78;56.52
13387;BME280;6763;48.524;9.044;2023-03-15T04:20:26;97768.47;;;4.69;56.44
13387;BME280;6763;48.524;9.044;2023-03-15T04:22:53;97767.59;;;4.66;55.85
13387;BME280;6763;48.524;9.044;2023-03-15T04:25:19;97784.69;;;4.65;55.96
13387;BME280;6763;48.524;9.044;2023-03-15T04:27:44;97777.00;;;4.64;56.10
13387;BME280;6763;48.524;9.044;2023-03-15T04:30:11;97782.13;;;4.65;56.01
13387;BME280;6763;48.524;9.044;2023-03-15T04:32:36;97781.25;;;4.63;55.89
13387;BME280;6763;48.524;9.044;2023-03-15T04:35:02;97793.22;;;4.63;56.28
13387;BME280;6763;48.524;9.044;2023-03-15T04:37:28;97792.34;;;4.58;56.04
13387;BME280;6763;48.524;9.044;2023-03-15T04:39:56;97804.31;;;4.59;56.49
13387;BME280;6763;48.524;9.044;2023-03-15T04:42:21;97797.41;;;4.52;56.61
13387;BME280;6763;48.524;9.044;2023-03-15T04:44:47;97799.16;;;4.51;56.29
13387;BME280;6763;48.524;9.044;2023-03-15T04:47:12;97811.06;;;4.49;56.24
13387;BME280;6763;48.524;9.044;2023-03-15T04:49:37;97800.81;;;4.45;56.10
13387;BME280;6763;48.524;9.044;2023-03-15T04:52:03;97811.09;;;4.46;56.30
13387;BME280;6763;48.524;9.044;2023-03-15T04:54:28;97810.25;;;4.49;56.00
13387;BME280;6763;48.524;9.044;2023-03-15T04:56:54;97800.84;;;4.46;56.11
13387;BME280;6763;48.524;9.044;2023-03-15T04:59:19;97805.06;;;4.43;56.22
13387;BME280;6763;48.524;9.044;2023-03-15T05:01:45;97806.78;;;4.44;56.02
13387;BME280;6763;48.524;9.044;2023-03-15T05:04:10;97809.34;;;4.45;56.21
13387;BME280;6763;48.524;9.044;2023-03-15T05:06:37;97805.06;;;4.43;55.93
13387;BME280;6763;48.524;9.044;2023-03-15T05:09:03;97806.75;;;4.37;56.04
13387;BME280;6763;48.524;9.044;2023-03-15T05:11:28;97809.28;;;4.36;56.20
13387;BME280;6763;48.524;9.044;2023-03-15T05:13:54;97800.72;;;4.28;55.68
13387;BME280;6763;48.524;9.044;2023-03-15T05:16:19;97805.84;;;4.28;55.94
13387;BME280;6763;48.524;9.044;2023-03-15T05:18:44;97804.09;;;4.24;55.48
13387;BME280;6763;48.524;9.044;2023-03-15T05:21:11;97810.94;;;4.22;55.37
13387;BME280;6763;48.524;9.044;2023-03-15T05:23:37;97811.72;;;4.18;55.39
13387;BME280;6763;48.524;9.044;2023-03-15T05:26:02;97815.97;;;4.13;55.06
13387;BME280;6763;48.524;9.044;2023-03-15T05:28:28;97824.47;;;4.07;54.79
13387;BME280;6763;48.524;9.044;2023-03-15T05:30:53;97813.31;;;3.96;54.52
13387;BME280;6763;48.524;9.044;2023-03-15T05:33:19;97826.97;;;3.98;54.34
13387;BME280;6763;48.524;9.044;2023-03-15T05:35:45;97835.47;;;3.96;54.27
13387;BME280;6763;48.524;9.044;2023-03-15T05:38:12;97832.91;;;3.93;55.14
13387;BME280;6763;48.524;9.044;2023-03-15T05:40:44;97832.91;;;3.93;55.60
13387;BME280;6763;48.524;9.044;2023-03-15T05:43:11;97823.53;;;3.96;56.09
13387;BME280;6763;48.524;9.044;2023-03-15T05:45:38;97826.97;;;3.97;55.92
13387;BME280;6763;48.524;9.044;2023-03-15T05:48:05;97830.41;;;4.00;56.49
13387;BME280;6763;48.524;9.044;2023-03-15T05:50:31;97832.97;;;4.05;56.61
13387;BME280;6763;48.524;9.044;2023-03-15T05:52:57;97835.56;;;4.08;56.65
13387;BME280;6763;48.524;9.044;2023-03-15T05:55:23;97835.63;;;4.12;56.56
13387;BME280;6763;48.524;9.044;2023-03-15T05:57:48;97829.63;;;4.13;56.08
13387;BME280;6763;48.524;9.044;2023-03-15T06:00:14;97831.38;;;4.14;56.04
13387;BME280;6763;48.524;9.044;2023-03-15T06:02:41;97832.22;;;4.16;56.40
13387;BME280;6763;48.524;9.044;2023-03-15T06:05:07;97834.81;;;4.21;56.32
13387;BME280;6763;48.524;9.044;2023-03-15T06:07:32;97845.09;;;4.24;56.19
13387;BME280;6763;48.524;9.044;2023-03-15T06:09:57;97844.28;;;4.28;56.17
13387;BME280;6763;48.524;9.044;2023-03-15T06:12:23;97847.69;;;4.30;55.89
13387;BME280;6763;48.524;9.044;2023-03-15T06:14:48;97850.25;;;4.31;56.21
13387;BME280;6763;48.524;9.044;2023-03-15T06:17:13;97850.28;;;4.36;56.66
13387;BME280;6763;48.524;9.044;2023-03-15T06:19:39;97840.91;;;4.35;56.80
13387;BME280;6763;48.524;9.044;2023-03-15T06:22:04;97847.81;;;4.48;56.94
13387;BME280;6763;48.524;9.044;2023-03-15T06:24:30;97849.56;;;4.54;56.60
13387;BME280;6763;48.524;9.044;2023-03-15T06:26:55;97852.13;;;4.57;56.49
13387;BME280;6763;48.524;9.044;2023-03-15T06:29:21;97853.03;;;4.63;56.42
13387;BME280;6763;48.524;9.044;2023-03-15T06:31:47;97853.91;;;4.67;56.68
13387;BME280;6763;48.524;9.044;2023-03-15T06:34:14;97856.50;;;4.71;57.03
13387;BME280;6763;48.524;9.044;2023-03-15T06:36:39;97863.34;;;4.78;56.83
13387;BME280;6763;48.524;9.044;2023-03-15T06:39:07;97862.53;;;4.84;56.92
13387;BME280;6763;48.524;9.044;2023-03-15T06:41:32;97875.41;;;4.96;56.91
13387;BME280;6763;48.524;9.044;2023-03-15T06:43:57;97877.16;;;5.05;56.80
13387;BME280;6763;48.524;9.044;2023-03-15T06:46:23;97876.34;;;5.10;57.04
13387;BME280;6763;48.524;9.044;2023-03-15T06:48:48;97864.38;;;5.11;56.78
13387;BME280;6763;48.524;9.044;2023-03-15T06:51:13;97872.94;;;5.22;57.10
13387;BME280;6763;48.524;9.044;2023-03-15T06:53:39;97866.97;;;5.23;56.77
13387;BME280;6763;48.524;9.044;2023-03-15T06:56:04;97870.41;;;5.28;56.92
13387;BME280;6763;48.524;9.044;2023-03-15T06:58:30;97870.44;;;5.38;57.10
13387;BME280;6763;48.524;9.044;2023-03-15T07:00:55;97879.88;;;5.44;57.32
13387;BME280;6763;48.524;9.044;2023-03-15T07:03:21;97880.75;;;5.50;57.09
13387;BME280;6763;48.524;9.044;2023-03-15T07:05:48;97875.63;;;5.52;57.07
13387;BME280;6763;48.524;9.044;2023-03-15T07:08:19;97882.50;;;5.63;57.06
13387;BME280;6763;48.524;9.044;2023-03-15T07:10:45;97881.66;;;5.69;57.25
13387;BME280;6763;48.524;9.044;2023-03-15T07:13:12;97883.41;;;5.81;57.34
13387;BME280;6763;48.524;9.044;2023-03-15T07:15:38;97888.56;;;5.88;57.16
13387;BME280;6763;48.524;9.044;2023-03-15T07:18:03;97895.41;;;5.97;57.19
13387;BME280;6763;48.524;9.044;2023-03-15T07:20:29;97888.59;;;6.06;56.82
13387;BME280;6763;48.524;9.044;2023-03-15T07:22:55;97898.88;;;6.18;56.76
13387;BME280;6763;48.524;9.044;2023-03-15T07:25:21;97880.03;;;6.24;56.97
13387;BME280;6763;48.524;9.044;2023-03-15T07:27:49;97894.59;;;6.33;56.02
13387;BME280;6763;48.524;9.044;2023-03-15T07:30:15;97894.56;;;6.42;55.68
13387;BME280;6763;48.524;9.044;2023-03-15T07:32:41;97892.00;;;6.51;55.82
13387;BME280;6763;48.524;9.044;2023-03-15T07:35:06;97883.44;;;6.58;55.59
13387;BME280;6763;48.524;9.044;2023-03-15T07:37:32;97896.25;;;6.70;55.48
13387;BME280;6763;48.524;9.044;2023-03-15T07:39:57;97896.25;;;6.79;55.05
13387;BME280;6763;48.524;9.044;2023-03-15T07:42:25;97895.34;;;6.91;55.61
13387;BME280;6763;48.524;9.044;2023-03-15T07:44:50;97905.63;;;7.01;54.80
13387;BME280;6763;48.524;9.044;2023-03-15T07:47:15;97901.31;;;7.08;54.47
13387;BME280;6763;48.524;9.044;2023-03-15T07:49:41;97907.28;;;7.19;53.57
13387;BME280;6763;48.524;9.044;2023-03-15T07:52:07;97913.28;;;7.21;52.51
13387;BME280;6763;48.524;9.044;2023-03-15T07:54:32;97918.41;;;7.24;52.51
13387;BME280;6763;48.524;9.044;2023-03-15T07:56:58;97904.66;;;7.29;51.61
13387;BME280;6763;48.524;9.044;2023-03-15T07:59:24;97911.47;;;7.39;51.27
13387;BME280;6763;48.524;9.044;2023-03-15T08:01:50;97905.44;;;7.51;51.26
13387;BME280;6763;48.524;9.044;2023-03-15T08:04:17;97911.41;;;7.59;51.28
13387;BME280;6763;48.524;9.044;2023-03-15T08:06:42;97907.88;;;7.74;51.10
13387;BME280;6763;48.524;9.044;2023-03-15T08:09:08;97902.63;;;7.89;50.76
13387;BME280;6763;48.524;9.044;2023-03-15T08:11:33;97902.56;;;8.04;50.43
13387;BME280;6763;48.524;9.044;2023-03-15T08:13:59;97898.16;;;8.15;50.26
13387;BME280;6763;48.524;9.044;2023-03-15T08:16:24;97901.56;;;8.20;48.69
13387;BME280;6763;48.524;9.044;2023-03-15T08:18:49;97905.88;;;8.18;47.48
13387;BME280;6763;48.524;9.044;2023-03-15T08:21:15;97903.25;;;8.32;47.46
13387;BME280;6763;48.524;9.044;2023-03-15T08:23:40;97910.94;;;8.38;47.46
13387;BME280;6763;48.524;9.044;2023-03-15T08:26:06;97900.47;;;8.54;47.13
13387;BME280;6763;48.524;9.044;2023-03-15T08:28:31;97903.75;;;8.70;46.84
13387;BME280;6763;48.524;9.044;2023-03-15T08:30:57;97906.19;;;8.87;45.64
13387;BME280;6763;48.524;9.044;2023-03-15T08:33:22;97899.97;;;9.03;45.30
13387;BME280;6763;48.524;9.044;2023-03-15T08:35:52;97894.59;;;9.21;45.19
13387;BME280;6763;48.524;9.044;2023-03-15T08:38:17;97890.31;;;9.23;44.04
13387;BME280;6763;48.524;9.044;2023-03-15T08:40:43;97895.16;;;9.47;43.71
13387;BME280;6763;48.524;9.044;2023-03-15T08:43:08;97896.59;;;9.69;42.63
13387;BME280;6763;48.524;9.044;2023-03-15T08:45:33;97891.31;;;9.77;42.13
13387;BME280;6763;48.524;9.044;2023-03-15T08:47:59;97898.00;;;9.93;42.19
13387;BME280;6763;48.524;9.044;2023-03-15T08:50:27;97883.34;;;9.92;41.37
13387;BME280;6763;48.524;9.044;2023-03-15T08:52:53;97888.69;;;9.80;41.44
13387;BME280;6763;48.524;9.044;2023-03-15T08:55:19;97898.78;;;9.98;41.88
13387;BME280;6763;48.524;9.044;2023-03-15T08:57:44;97901.00;;;10.22;41.90
13387;BME280;6763;48.524;9.044;2023-03-15T09:00:11;97898.91;;;10.45;40.70
13387;BME280;6763;48.524;9.044;2023-03-15T09:02:44;97902.72;;;10.75;40.75
13387;BME280;6763;48.524;9.044;2023-03-15T09:05:09;97890.84;;;11.11;40.08
13387;BME280;6763;48.524;9.044;2023-03-15T09:07:37;97904.34;;;11.28;38.26
13387;BME280;6763;48.524;9.044;2023-03-15T09:10:02;97904.97;;;11.39;36.61
13387;BME280;6763;48.524;9.044;2023-03-15T09:12:28;97897.13;;;11.44;35.68
13387;BME280;6763;48.524;9.044;2023-03-15T09:14:54;97904.81;;;11.47;35.41
13387;BME280;6763;48.524;9.044;2023-03-15T09:17:19;97919.06;;;11.67;35.82
13387;BME280;6763;48.524;9.044;2023-03-15T09:19:45;97909.94;;;11.93;35.83
13387;BME280;6763;48.524;9.044;2023-03-15T09:22:10;97912.69;;;12.22;35.61
13387;BME280;6763;48.524;9.044;2023-03-15T09:24:36;97927.63;;;12.49;35.83
13387;BME280;6763;48.524;9.044;2023-03-15T09:27:02;97917.03;;;12.58;34.01
13387;BME280;6763;48.524;9.044;2023-03-15T09:29:27;97925.53;;;12.65;33.37
13387;BME280;6763;48.524;9.044;2023-03-15T09:31:53;97913.72;;;12.52;32.98
13387;BME280;6763;48.524;9.044;2023-03-15T09:34:19;97922.81;;;12.34;32.73
13387;BME280;6763;48.524;9.044;2023-03-15T09:36:44;97924.09;;;12.16;33.06
13387;BME280;6763;48.524;9.044;2023-03-15T09:39:17;97927.28;;;12.27;34.42
13387;BME280;6763;48.524;9.044;2023-03-15T09:41:45;97927.91;;;12.38;34.18
13387;BME280;6763;48.524;9.044;2023-03-15T09:44:13;97930.34;;;12.44;34.23
13387;BME280;6763;48.524;9.044;2023-03-15T09:46:55;97942.28;;;12.52;34.26
13387;BME280;6763;48.524;9.044;2023-03-15T09:49:46;97934.09;;;12.68;33.42
13387;BME280;6763;48.524;9.044;2023-03-15T09:52:26;97933.53;;;12.89;33.41
13387;BME280;6763;48.524;9.044;2023-03-15T09:54:59;97928.16;;;12.97;32.65
13387;BME280;6763;48.524;9.044;2023-03-15T10:00:03;97926.09;;;13.11;33.15
13387;BME280;6763;48.524;9.044;2023-03-15T10:02:32;97924.19;;;13.18;32.68
13387;BME280;6763;48.524;9.044;2023-03-15T10:05:02;97927.41;;;13.26;32.04
13387;BME280;6763;48.524;9.044;2023-03-15T10:07:30;97918.75;;;13.27;31.95
13387;BME280;6763;48.524;9.044;2023-03-15T10:09:56;97916.28;;;13.21;31.87
13387;BME280;6763;48.524;9.044;2023-03-15T10:12:37;97925.16;;;13.14;31.77
13387;BME280;6763;48.524;9.044;2023-03-15T10:15:31;97928.19;;;12.95;29.96
13387;BME280;6763;48.524;9.044;2023-03-15T10:20:31;97924.53;;;13.04;30.76
13387;BME280;6763;48.524;9.044;2023-03-15T10:23:22;97916.41;;;13.18;30.50
13387;BME280;6763;48.524;9.044;2023-03-15T10:25:53;97916.28;;;13.53;30.55
13387;BME280;6763;48.524;9.044;2023-03-15T10:28:27;97918.06;;;14.09;29.62
13387;BME280;6763;48.524;9.044;2023-03-15T10:30:57;97909.34;;;14.66;28.72
13387;BME280;6763;48.524;9.044;2023-03-15T10:33:39;97906.56;;;15.21;27.18
13387;BME280;6763;48.524;9.044;2023-03-15T10:36:17;97917.75;;;15.73;26.38
13387;BME280;6763;48.524;9.044;2023-03-15T10:38:44;97908.44;;;16.12;25.13
13387;BME280;6763;48.524;9.044;2023-03-15T10:41:12;97915.84;;;16.23;24.57
13387;BME280;6763;48.524;9.044;2023-03-15T10:43:38;97901.00;;;16.01;24.01
13387;BME280;6763;48.524;9.044;2023-03-15T10:48:51;97918.09;;;16.32;24.26
13387;BME280;6763;48.524;9.044;2023-03-15T10:53:53;97905.91;;;16.76;22.93
13387;BME280;6763;48.524;9.044;2023-03-15T10:56:25;97918.91;;;16.97;23.03
13387;BME280;6763;48.524;9.044;2023-03-15T10:58:53;97911.47;;;16.88;22.82
13387;BME280;6763;48.524;9.044;2023-03-15T11:01:27;97903.56;;;16.90;22.58
13387;BME280;6763;48.524;9.044;2023-03-15T11:04:09;97912.72;;;16.58;21.73
13387;BME280;6763;48.524;9.044;2023-03-15T11:06:43;97902.78;;;16.23;22.15
13387;BME280;6763;48.524;9.044;2023-03-15T11:09:18;97905.16;;;16.29;22.37
13387;BME280;6763;48.524;9.044;2023-03-15T11:12:02;97901.78;;;15.82;22.96
13387;BME280;6763;48.524;9.044;2023-03-15T11:14:43;97899.38;;;15.99;23.23
13387;BME280;6763;48.524;9.044;2023-03-15T11:17:25;97897.75;;;16.18;23.68
13387;BME280;6763;48.524;9.044;2023-03-15T11:19:55;97904.91;;;16.35;23.34
13387;BME280;6763;48.524;9.044;2023-03-15T11:22:22;97883.06;;;16.59;22.84
13387;BME280;6763;48.524;9.044;2023-03-15T11:24:48;97880.03;;;16.90;22.74
13387;BME280;6763;48.524;9.044;2023-03-15T11:27:16;97900.59;;;16.77;22.46
13387;BME280;6763;48.524;9.044;2023-03-15T11:29:48;97893.44;;;16.39;22.70
13387;BME280;6763;48.524;9.044;2023-03-15T11:32:19;97886.03;;;16.28;22.95
13387;BME280;6763;48.524;9.044;2023-03-15T11:37:46;97884.81;;;16.15;23.08
13387;BME280;6763;48.524;9.044;2023-03-15T11:48:15;97871.94;;;15.66;24.76
13387;BME280;6763;48.524;9.044;2023-03-15T11:50:42;97877.59;;;15.77;25.22
13387;BME280;6763;48.524;9.044;2023-03-15T11:53:12;97881.69;;;15.61;24.91
13387;BME280;6763;48.524;9.044;2023-03-15T11:55:39;97881.00;;;15.56;25.21
13387;BME280;6763;48.524;9.044;2023-03-15T11:58:35;97871.28;;;15.82;25.15
13387;BME280;6763;48.524;9.044;2023-03-15T12:01:09;97879.56;;;16.37;24.84
13387;BME280;6763;48.524;9.044;2023-03-15T12:03:41;97878.16;;;16.50;23.91
13387;BME280;6763;48.524;9.044;2023-03-15T12:08:53;97880.47;;;16.14;23.86
13387;BME280;6763;48.524;9.044;2023-03-15T12:14:22;97885.56;;;15.50;24.71
13387;BME280;6763;48.524;9.044;2023-03-15T12:16:49;97883.81;;;15.51;25.57
13387;BME280;6763;48.524;9.044;2023-03-15T12:19:19;97893.47;;;15.47;24.52
13387;BME280;6763;48.524;9.044;2023-03-15T12:21:51;97879.09;;;15.36;24.56
13387;BME280;6763;48.524;9.044;2023-03-15T12:24:24;97873.50;;;15.46;24.94
13387;BME280;6763;48.524;9.044;2023-03-15T12:27:17;97872.06;;;15.38;24.12
13387;BME280;6763;48.524;9.044;2023-03-15T12:29:45;97876.13;;;15.22;24.61
13387;BME280;6763;48.524;9.044;2023-03-15T12:32:16;97880.56;;;15.20;25.06
13387;BME280;6763;48.524;9.044;2023-03-15T12:37:20;97878.00;;;15.41;25.92
13387;BME280;6763;48.524;9.044;2023-03-15T12:39:49;97879.31;;;15.30;25.40
13387;BME280;6763;48.524;9.044;2023-03-15T12:56:42;97867.38;;;15.23;24.94
13387;BME280;6763;48.524;9.044;2023-03-15T12:59:21;97866.28;;;15.30;25.28
13387;BME280;6763;48.524;9.044;2023-03-15T13:01:50;97859.69;;;15.20;25.30
13387;BME280;6763;48.524;9.044;2023-03-15T13:04:16;97860.88;;;15.11;25.75
13387;BME280;6763;48.524;9.044;2023-03-15T13:07:03;97867.34;;;15.00;26.28
13387;BME280;6763;48.524;9.044;2023-03-15T13:12:25;97870.81;;;14.75;26.16
13387;BME280;6763;48.524;9.044;2023-03-15T13:15:00;97868.16;;;14.77;26.07
13387;BME280;6763;48.524;9.044;2023-03-15T13:20:19;97869.69;;;15.07;26.06
13387;BME280;6763;48.524;9.044;2023-03-15T13:28:21;97864.94;;;15.18;24.38
13387;BME280;6763;48.524;9.044;2023-03-15T13:30:52;97861.66;;;15.13;24.57
13387;BME280;6763;48.524;9.044;2023-03-15T13:33:22;97860.88;;;15.11;24.62
13387;BME280;6763;48.524;9.044;2023-03-15T13:40:51;97859.56;;;15.23;24.39
13387;BME280;6763;48.524;9.044;2023-03-15T13:43:17;97850.03;;;15.46;24.49
13387;BME280;6763;48.524;9.044;2023-03-15T13:45:43;97850.41;;;15.59;24.59
13387;BME280;6763;48.524;9.044;2023-03-15T13:48:09;97840.56;;;15.67;24.32
13387;BME280;6763;48.524;9.044;2023-03-15T13:50:35;97842.47;;;15.39;24.09
13387;BME280;6763;48.524;9.044;2023-03-15T13:53:01;97852.59;;;15.23;24.51
13387;BME280;6763;48.524;9.044;2023-03-15T13:55:31;97852.25;;;15.09;24.84
13387;BME280;6763;48.524;9.044;2023-03-15T13:57:59;97845.13;;;14.89;24.92
13387;BME280;6763;48.524;9.044;2023-03-15T14:00:30;97851.13;;;14.91;25.16
13387;BME280;6763;48.524;9.044;2023-03-15T14:03:02;97852.78;;;14.94;24.98
13387;BME280;6763;48.524;9.044;2023-03-15T14:05:32;97858.63;;;14.76;25.06
13387;BME280;6763;48.524;9.044;2023-03-15T14:08:17;97865.00;;;14.67;25.73
13387;BME280;6763;48.524;9.044;2023-03-15T14:13:25;97874.13;;;14.54;26.10
13387;BME280;6763;48.524;9.044;2023-03-15T14:15:57;97878.56;;;14.52;26.57
13387;BME280;6763;48.524;9.044;2023-03-15T14:18:25;97877.16;;;14.42;26.92
13387;BME280;6763;48.524;9.044;2023-03-15T14:20:59;97875.38;;;14.43;26.98
13387;BME280;6763;48.524;9.044;2023-03-15T14:23:28;97866.34;;;14.79;27.08
13387;BME280;6763;48.524;9.044;2023-03-15T14:28:39;97865.34;;;16.00;25.77
13387;BME280;6763;48.524;9.044;2023-03-15T14:31:07;97855.28;;;16.56;25.27
13387;BME280;6763;48.524;9.044;2023-03-15T14:33:36;97856.34;;;16.93;24.80
13387;BME280;6763;48.524;9.044;2023-03-15T14:36:05;97850.53;;;16.86;24.96
13387;BME280;6763;48.524;9.044;2023-03-15T14:38:37;97849.94;;;16.59;25.00